Overview Statistics Trail Chart Weather Telemetry Raw packets
 

This is the latest recevied weather packets stored in our database for station/object K7MT-WX. If no packets are shown the sender has not sent any weather packets the latest 10 day(s).

<< 1 2 3 4 >>
Time Temp. Humidity Pressure Rain* Wind** Luminosity Snow
1788621769 15.56° C 70% 1019.4 hPa 0 mm - - -
1788620869 15° C 72% 1019.4 hPa 0 mm - - -
1788619969 13.89° C 74% 1019.4 hPa 0 mm - - -
1788619069 12.78° C 78% 1019.3 hPa 0 mm - - -
1788618169 12.22° C 82% 1019.3 hPa 0 mm - - -
1788617296 11.67° C 82% 1019.1 hPa 0 mm - - -
1788616369 11.67° C 82% 1019.1 hPa 0 mm - - -
1788615469 11.67° C 83% 1018.8 hPa 0 mm - - -
1788614569 11.67° C 84% 1018.4 hPa 0 mm - - -
1788613669 11.67° C 83% 1018.4 hPa 0 mm - - -
1788612769 11.67° C 83% 1018.5 hPa 0 mm - - -
1788611869 11.67° C 82% 1018.1 hPa 0 mm - - -
1788610969 11.67° C 84% 1018.2 hPa 0 mm - - -
1788610069 11.67° C 85% 1017.8 hPa 0 mm - - -
1788609169 11.67° C 84% 1017.9 hPa 0 mm - - -
1788608269 12.22° C 83% 1018.2 hPa 0 mm - - -
1788607369 12.22° C 81% 1018.4 hPa 0 mm - - -
1788606469 12.22° C 82% 1018.2 hPa 0 mm - - -
1788605569 12.22° C 82% 1018.1 hPa 0 mm - - -
1788604669 12.22° C 83% 1016.9 hPa 0 mm - - -
1788603769 12.22° C 82% 1017.7 hPa 0 mm - - -
1788602869 12.78° C 80% 1017.5 hPa 0 mm - - -
1788601969 12.78° C 77% 1018.3 hPa 0 mm - - -
1788601069 12.78° C 79% 1018.6 hPa 0 mm - - -
1788600169 12.22° C 80% 1017 hPa 0 mm - - -

* Rain latest hour (hover to see other rain measurements)
** Current wind speed in m/s (hover to see current wind gust speed)